Terminal Aerodrome Forecast
Issued by NWS Upton, NY

Home | Current Version | Previous Version | Text Only | Print | Product List | Glossary On
Versions: 1 2 3 4 5 6 7 8 9 10 11 12 13 14 15 16 17 18 19 20 21 22 23 24 25 26 27 28 29 30 31 32 33
000
FTUS41 KOKX 160554 AAA
TAFJFK
TAF AMD
KJFK 160554Z 1606/1712 04006KT P6SM SCT015
      TEMPO 1606/1609 BKN015
     FM160900 VRB04KT P6SM BKN030
     FM161400 10006KT P6SM BKN025
     FM161800 14007KT P6SM BKN020
     FM162200 13006KT 6SM -SN BKN020
     FM170100 VRB05KT 2SM -SN BKN015
      TEMPO 1703/1706 -RASN
     FM170600 06006KT 1SM -RASN OVC008
     FM170900 04007KT 1SM -SN BR OVC008=

USA.gov is the U.S. government's official web portal to all federal, state and local government web resources and services.